sensor_id;sensor_type;location;lat;lon;timestamp;pressure;altitude;pressure_sealevel;temperature;humidity
69214;BME280;56325;47.030;18.518;2023-02-28T00:00:55;101558.22;;;1.96;64.68
69214;BME280;56325;47.030;18.518;2023-02-28T00:03:30;101563.69;;;2.00;63.91
69214;BME280;56325;47.030;18.518;2023-02-28T00:06:09;101557.72;;;1.87;64.03
69214;BME280;56325;47.030;18.518;2023-02-28T00:08:44;101561.41;;;2.02;64.70
69214;BME280;56325;47.030;18.518;2023-02-28T00:11:18;101584.41;;;1.85;64.93
69214;BME280;56325;47.030;18.518;2023-02-28T00:13:53;101594.19;;;1.90;64.96
69214;BME280;56325;47.030;18.518;2023-02-28T00:16:27;101593.81;;;1.91;65.30
69214;BME280;56325;47.030;18.518;2023-02-28T00:19:03;101597.75;;;1.97;64.13
69214;BME280;56325;47.030;18.518;2023-02-28T00:21:39;101606.28;;;1.96;64.97
69214;BME280;56325;47.030;18.518;2023-02-28T00:24:16;101602.47;;;2.01;65.06
69214;BME280;56325;47.030;18.518;2023-02-28T00:26:50;101598.34;;;2.10;65.00
69214;BME280;56325;47.030;18.518;2023-02-28T00:29:24;101591.81;;;2.15;65.02
69214;BME280;56325;47.030;18.518;2023-02-28T00:31:59;101601.22;;;2.24;65.00
69214;BME280;56325;47.030;18.518;2023-02-28T00:34:33;101604.41;;;2.30;65.14
69214;BME280;56325;47.030;18.518;2023-02-28T00:37:12;101599.06;;;2.37;64.01
69214;BME280;56325;47.030;18.518;2023-02-28T00:39:46;101600.63;;;2.38;64.58
69214;BME280;56325;47.030;18.518;2023-02-28T00:42:22;101605.38;;;2.45;64.82
69214;BME280;56325;47.030;18.518;2023-02-28T00:44:56;101602.28;;;2.46;64.59
69214;BME280;56325;47.030;18.518;2023-02-28T00:47:31;101602.31;;;2.50;64.30
69214;BME280;56325;47.030;18.518;2023-02-28T00:50:07;101605.78;;;2.47;63.76
69214;BME280;56325;47.030;18.518;2023-02-28T00:52:43;101594.78;;;2.36;63.85
69214;BME280;56325;47.030;18.518;2023-02-28T00:55:19;101595.47;;;2.29;63.28
69214;BME280;56325;47.030;18.518;2023-02-28T00:57:53;101599.66;;;2.23;63.40
69214;BME280;56325;47.030;18.518;2023-02-28T01:00:28;101602.50;;;2.04;63.62
69214;BME280;56325;47.030;18.518;2023-02-28T01:03:02;101601.69;;;2.00;63.70
69214;BME280;56325;47.030;18.518;2023-02-28T01:05:37;101596.56;;;1.95;63.99
69214;BME280;56325;47.030;18.518;2023-02-28T01:08:13;101603.25;;;2.01;64.59
69214;BME280;56325;47.030;18.518;2023-02-28T01:10:48;101600.13;;;1.99;63.76
69214;BME280;56325;47.030;18.518;2023-02-28T01:13:22;101611.75;;;2.00;64.08
69214;BME280;56325;47.030;18.518;2023-02-28T01:15:58;101595.31;;;1.89;64.70
69214;BME280;56325;47.030;18.518;2023-02-28T01:18:33;101602.41;;;1.97;64.12
69214;BME280;56325;47.030;18.518;2023-02-28T01:21:11;101614.34;;;1.92;64.49
69214;BME280;56325;47.030;18.518;2023-02-28T01:23:48;101601.12;;;1.87;65.14
69214;BME280;56325;47.030;18.518;2023-02-28T01:26:23;101611.00;;;2.03;64.47
69214;BME280;56325;47.030;18.518;2023-02-28T01:28:57;101609.87;;;2.04;64.64
69214;BME280;56325;47.030;18.518;2023-02-28T01:31:32;101614.56;;;2.07;64.72
69214;BME280;56325;47.030;18.518;2023-02-28T01:34:06;101599.16;;;2.14;63.75
69214;BME280;56325;47.030;18.518;2023-02-28T01:36:41;101620.03;;;2.10;64.66
69214;BME280;56325;47.030;18.518;2023-02-28T01:39:17;101601.09;;;2.14;64.09
69214;BME280;56325;47.030;18.518;2023-02-28T01:41:52;101601.81;;;2.11;64.21
69214;BME280;56325;47.030;18.518;2023-02-28T01:45:02;101600.34;;;2.17;63.89
69214;BME280;56325;47.030;18.518;2023-02-28T01:47:41;101592.53;;;2.12;64.40
69214;BME280;56325;47.030;18.518;2023-02-28T01:50:18;101597.59;;;2.13;63.69
69214;BME280;56325;47.030;18.518;2023-02-28T01:52:57;101600.34;;;2.17;64.12
69214;BME280;56325;47.030;18.518;2023-02-28T01:55:37;101606.84;;;2.09;64.72
69214;BME280;56325;47.030;18.518;2023-02-28T01:58:14;101599.66;;;2.23;64.56
69214;BME280;56325;47.030;18.518;2023-02-28T02:00:49;101601.66;;;2.26;64.67
69214;BME280;56325;47.030;18.518;2023-02-28T02:03:24;101606.00;;;2.35;64.54
69214;BME280;56325;47.030;18.518;2023-02-28T02:05:59;101599.81;;;2.34;64.64
69214;BME280;56325;47.030;18.518;2023-02-28T02:08:34;101609.50;;;2.35;64.41
69214;BME280;56325;47.030;18.518;2023-02-28T02:11:17;101607.84;;;2.57;64.03
69214;BME280;56325;47.030;18.518;2023-02-28T02:16:59;101610.09;;;2.51;64.11
69214;BME280;56325;47.030;18.518;2023-02-28T02:20:09;101600.06;;;2.55;63.04
69214;BME280;56325;47.030;18.518;2023-02-28T02:23:13;101597.00;;;2.60;63.31
69214;BME280;56325;47.030;18.518;2023-02-28T02:25:56;101603.25;;;2.64;62.76
69214;BME280;56325;47.030;18.518;2023-02-28T02:28:58;101605.78;;;2.47;63.09
69214;BME280;56325;47.030;18.518;2023-02-28T02:31:52;101597.00;;;2.60;63.15
69214;BME280;56325;47.030;18.518;2023-02-28T02:34:54;101600.97;;;2.70;63.96
69214;BME280;56325;47.030;18.518;2023-02-28T02:37:37;101603.31;;;2.72;63.85
69214;BME280;56325;47.030;18.518;2023-02-28T02:40:15;101597.09;;;2.71;63.13
69214;BME280;56325;47.030;18.518;2023-02-28T02:42:55;101603.81;;;2.81;63.52
69214;BME280;56325;47.030;18.518;2023-02-28T02:45:38;101599.94;;;2.82;63.81
69214;BME280;56325;47.030;18.518;2023-02-28T02:48:17;101591.00;;;2.81;63.17
69214;BME280;56325;47.030;18.518;2023-02-28T02:50:58;101596.91;;;2.90;63.33
69214;BME280;56325;47.030;18.518;2023-02-28T02:53:37;101598.44;;;2.88;62.09
69214;BME280;56325;47.030;18.518;2023-02-28T02:56:14;101596.88;;;2.87;61.88
69214;BME280;56325;47.030;18.518;2023-02-28T02:58:53;101603.00;;;2.77;63.00
69214;BME280;56325;47.030;18.518;2023-02-28T03:01:32;101605.84;;;2.91;63.07
69214;BME280;56325;47.030;18.518;2023-02-28T03:04:09;101609.50;;;2.69;62.33
69214;BME280;56325;47.030;18.518;2023-02-28T03:06:46;101601.50;;;2.83;63.05
69214;BME280;56325;47.030;18.518;2023-02-28T03:09:21;101596.25;;;3.01;62.84
69214;BME280;56325;47.030;18.518;2023-02-28T03:11:56;101597.06;;;3.05;62.52
69214;BME280;56325;47.030;18.518;2023-02-28T03:14:40;101604.06;;;3.06;62.07
69214;BME280;56325;47.030;18.518;2023-02-28T03:20:27;101602.81;;;2.96;62.81
69214;BME280;56325;47.030;18.518;2023-02-28T03:23:15;101606.91;;;2.79;62.24
69214;BME280;56325;47.030;18.518;2023-02-28T03:25:56;101606.53;;;2.81;62.86
69214;BME280;56325;47.030;18.518;2023-02-28T03:28:40;101610.31;;;2.73;63.04
69214;BME280;56325;47.030;18.518;2023-02-28T03:31:21;101593.34;;;2.83;62.12
69214;BME280;56325;47.030;18.518;2023-02-28T03:34:00;101594.56;;;2.89;62.72
69214;BME280;56325;47.030;18.518;2023-02-28T03:36:38;101595.31;;;2.86;62.70
69214;BME280;56325;47.030;18.518;2023-02-28T03:39:20;101593.69;;;2.78;62.05
69214;BME280;56325;47.030;18.518;2023-02-28T03:41:58;101606.78;;;2.69;62.47
69214;BME280;56325;47.030;18.518;2023-02-28T03:44:36;101589.25;;;2.62;61.96
69214;BME280;56325;47.030;18.518;2023-02-28T03:47:19;101593.94;;;2.66;62.33
69214;BME280;56325;47.030;18.518;2023-02-28T03:49:59;101597.22;;;2.82;61.67
69214;BME280;56325;47.030;18.518;2023-02-28T03:52:43;101595.50;;;2.67;62.31
69214;BME280;56325;47.030;18.518;2023-02-28T03:55:21;101599.34;;;2.62;62.18
69214;BME280;56325;47.030;18.518;2023-02-28T03:57:58;101612.22;;;2.69;61.97
69214;BME280;56325;47.030;18.518;2023-02-28T04:00:38;101604.44;;;2.67;62.51
69214;BME280;56325;47.030;18.518;2023-02-28T04:03:14;101607.56;;;2.69;62.25
69214;BME280;56325;47.030;18.518;2023-02-28T04:05:51;101605.69;;;2.77;62.99
69214;BME280;56325;47.030;18.518;2023-02-28T04:08:26;101604.88;;;2.73;62.50
69214;BME280;56325;47.030;18.518;2023-02-28T04:11:04;101606.44;;;2.74;62.51
69214;BME280;56325;47.030;18.518;2023-02-28T04:13:41;101603.41;;;2.79;62.73
69214;BME280;56325;47.030;18.518;2023-02-28T04:16:18;101594.53;;;2.85;62.62
69214;BME280;56325;47.030;18.518;2023-02-28T04:19:09;101597.22;;;2.82;61.88
69214;BME280;56325;47.030;18.518;2023-02-28T04:21:44;101596.41;;;2.78;63.06
69214;BME280;56325;47.030;18.518;2023-02-28T04:24:20;101598.53;;;2.61;63.46
69214;BME280;56325;47.030;18.518;2023-02-28T04:26:57;101606.41;;;2.70;63.67
69214;BME280;56325;47.030;18.518;2023-02-28T04:29:32;101608.75;;;2.72;64.30
69214;BME280;56325;47.030;18.518;2023-02-28T04:32:06;101613.44;;;2.75;64.36
69214;BME280;56325;47.030;18.518;2023-02-28T04:34:41;101596.69;;;2.69;64.81
69214;BME280;56325;47.030;18.518;2023-02-28T04:37:15;101607.53;;;2.66;64.98
69214;BME280;56325;47.030;18.518;2023-02-28T04:39:51;101611.12;;;2.77;64.74
69214;BME280;56325;47.030;18.518;2023-02-28T04:42:27;101611.09;;;2.73;64.57
69214;BME280;56325;47.030;18.518;2023-02-28T04:45:09;101608.91;;;2.86;64.23
69214;BME280;56325;47.030;18.518;2023-02-28T04:47:43;101609.28;;;2.84;64.53
69214;BME280;56325;47.030;18.518;2023-02-28T04:50:22;101606.84;;;2.76;64.68
69214;BME280;56325;47.030;18.518;2023-02-28T04:52:56;101610.72;;;2.75;64.65
69214;BME280;56325;47.030;18.518;2023-02-28T04:55:31;101605.78;;;2.84;64.84
69214;BME280;56325;47.030;18.518;2023-02-28T04:58:07;101583.00;;;8.02;100.00
69214;BME280;56325;47.030;18.518;2023-02-28T05:00:42;101586.72;;;6.92;91.16
69214;BME280;56325;47.030;18.518;2023-02-28T05:03:16;101597.72;;;5.30;80.20
69214;BME280;56325;47.030;18.518;2023-02-28T05:05:50;101603.09;;;4.66;75.40
69214;BME280;56325;47.030;18.518;2023-02-28T05:08:25;101594.34;;;4.14;69.95
69214;BME280;56325;47.030;18.518;2023-02-28T05:11:03;101595.44;;;4.03;71.37
69214;BME280;56325;47.030;18.518;2023-02-28T05:13:39;101592.56;;;3.78;68.64
69214;BME280;56325;47.030;18.518;2023-02-28T05:16:14;101597.91;;;3.63;68.87
69214;BME280;56325;47.030;18.518;2023-02-28T05:18:49;101594.28;;;3.42;68.21
69214;BME280;56325;47.030;18.518;2023-02-28T05:21:29;101603.91;;;3.32;66.48
69214;BME280;56325;47.030;18.518;2023-02-28T05:24:06;101595.47;;;3.00;66.68
69214;BME280;56325;47.030;18.518;2023-02-28T05:26:42;101589.19;;;2.92;67.41
69214;BME280;56325;47.030;18.518;2023-02-28T05:29:18;101598.59;;;3.02;67.28
69214;BME280;56325;47.030;18.518;2023-02-28T05:31:53;101592.78;;;3.04;66.56
69214;BME280;56325;47.030;18.518;2023-02-28T05:34:27;101597.06;;;3.05;66.75
69214;BME280;56325;47.030;18.518;2023-02-28T05:37:02;101602.87;;;3.03;65.99
69214;BME280;56325;47.030;18.518;2023-02-28T05:39:37;101607.44;;;2.95;66.82
69214;BME280;56325;47.030;18.518;2023-02-28T05:42:12;101613.34;;;3.01;65.56
69214;BME280;56325;47.030;18.518;2023-02-28T05:44:47;101613.00;;;3.06;65.48
69214;BME280;56325;47.030;18.518;2023-02-28T05:47:22;101614.75;;;2.88;66.58
69214;BME280;56325;47.030;18.518;2023-02-28T05:49:56;101610.22;;;2.99;65.96
69214;BME280;56325;47.030;18.518;2023-02-28T05:52:32;101611.34;;;2.98;66.59
69214;BME280;56325;47.030;18.518;2023-02-28T05:55:07;101615.16;;;2.90;66.45
69214;BME280;56325;47.030;18.518;2023-02-28T05:57:41;101614.22;;;3.60;82.39
69214;BME280;56325;47.030;18.518;2023-02-28T06:00:18;101602.09;;;7.72;100.00
69214;BME280;56325;47.030;18.518;2023-02-28T06:02:53;101616.44;;;5.78;89.37
69214;BME280;56325;47.030;18.518;2023-02-28T06:05:31;101604.94;;;7.99;100.00
69214;BME280;56325;47.030;18.518;2023-02-28T06:08:06;101609.56;;;7.19;88.97
69214;BME280;56325;47.030;18.518;2023-02-28T06:10:41;101624.22;;;5.65;71.13
69214;BME280;56325;47.030;18.518;2023-02-28T06:13:16;101619.31;;;4.38;69.12
69214;BME280;56325;47.030;18.518;2023-02-28T06:15:51;101622.63;;;3.41;65.58
69214;BME280;56325;47.030;18.518;2023-02-28T06:18:27;101629.63;;;3.01;67.07
69214;BME280;56325;47.030;18.518;2023-02-28T06:21:05;101623.53;;;2.74;68.66
69214;BME280;56325;47.030;18.518;2023-02-28T06:23:40;101626.87;;;2.97;69.03
69214;BME280;56325;47.030;18.518;2023-02-28T06:26:17;101631.91;;;2.62;65.78
69214;BME280;56325;47.030;18.518;2023-02-28T06:28:52;101631.50;;;2.56;66.11
69214;BME280;56325;47.030;18.518;2023-02-28T06:31:28;101637.56;;;2.46;65.82
69214;BME280;56325;47.030;18.518;2023-02-28T06:34:05;101648.22;;;2.62;66.47
69214;BME280;56325;47.030;18.518;2023-02-28T06:36:39;101647.59;;;2.76;66.37
69214;BME280;56325;47.030;18.518;2023-02-28T06:39:14;101662.34;;;2.41;64.55
69214;BME280;56325;47.030;18.518;2023-02-28T06:41:49;101647.25;;;2.44;67.21
69214;BME280;56325;47.030;18.518;2023-02-28T06:44:28;101652.25;;;2.75;64.38
69214;BME280;56325;47.030;18.518;2023-02-28T06:47:09;101647.88;;;2.67;63.75
69214;BME280;56325;47.030;18.518;2023-02-28T06:49:44;101660.28;;;2.98;63.38
69214;BME280;56325;47.030;18.518;2023-02-28T06:52:18;101658.06;;;3.11;61.78
69214;BME280;56325;47.030;18.518;2023-02-28T06:54:53;101667.31;;;3.03;63.05
69214;BME280;56325;47.030;18.518;2023-02-28T06:57:34;101675.31;;;2.88;63.23
69214;BME280;56325;47.030;18.518;2023-02-28T07:02:52;101671.78;;;3.69;60.85
69214;BME280;56325;47.030;18.518;2023-02-28T07:05:28;101671.78;;;3.69;60.85
69214;BME280;56325;47.030;18.518;2023-02-28T07:08:03;101666.34;;;7.60;100.00
69214;BME280;56325;47.030;18.518;2023-02-28T07:10:38;101665.94;;;9.32;99.10
69214;BME280;56325;47.030;18.518;2023-02-28T07:13:12;101674.13;;;8.06;80.49
69214;BME280;56325;47.030;18.518;2023-02-28T07:15:53;101685.06;;;5.98;67.69
69214;BME280;56325;47.030;18.518;2023-02-28T07:18:29;101686.19;;;5.47;66.35
69214;BME280;56325;47.030;18.518;2023-02-28T07:21:06;101691.59;;;5.08;62.76
69214;BME280;56325;47.030;18.518;2023-02-28T07:23:41;101689.44;;;4.55;59.00
69214;BME280;56325;47.030;18.518;2023-02-28T07:26:16;101686.34;;;4.60;60.48
69214;BME280;56325;47.030;18.518;2023-02-28T07:28:51;101692.56;;;4.53;60.88
69214;BME280;56325;47.030;18.518;2023-02-28T07:31:26;101690.16;;;4.41;61.33
69214;BME280;56325;47.030;18.518;2023-02-28T07:34:02;101685.47;;;4.38;60.19
69214;BME280;56325;47.030;18.518;2023-02-28T07:36:36;101687.72;;;4.22;58.88
69214;BME280;56325;47.030;18.518;2023-02-28T07:39:11;101696.31;;;4.27;59.52
69214;BME280;56325;47.030;18.518;2023-02-28T07:41:46;101685.78;;;4.22;59.55
69214;BME280;56325;47.030;18.518;2023-02-28T07:44:21;101694.69;;;4.16;58.80
69214;BME280;56325;47.030;18.518;2023-02-28T07:46:55;101688.16;;;4.35;59.40
69214;BME280;56325;47.030;18.518;2023-02-28T07:49:31;101682.31;;;4.25;58.38
69214;BME280;56325;47.030;18.518;2023-02-28T07:52:06;101683.09;;;4.26;57.66
69214;BME280;56325;47.030;18.518;2023-02-28T07:54:44;101685.72;;;4.12;57.82
69214;BME280;56325;47.030;18.518;2023-02-28T07:57:18;101678.75;;;4.18;57.37
69214;BME280;56325;47.030;18.518;2023-02-28T07:59:53;101678.03;;;4.24;57.95
69214;BME280;56325;47.030;18.518;2023-02-28T08:02:28;101686.94;;;4.18;56.33
69214;BME280;56325;47.030;18.518;2023-02-28T08:05:05;101687.94;;;3.95;55.73
69214;BME280;56325;47.030;18.518;2023-02-28T08:07:39;101672.88;;;4.09;56.74
69214;BME280;56325;47.030;18.518;2023-02-28T08:10:14;101679.03;;;4.02;55.87
69214;BME280;56325;47.030;18.518;2023-02-28T08:12:49;101671.31;;;4.08;56.06
69214;BME280;56325;47.030;18.518;2023-02-28T08:15:24;101658.84;;;7.12;96.45
69214;BME280;56325;47.030;18.518;2023-02-28T08:17:58;101665.44;;;8.83;92.44
69214;BME280;56325;47.030;18.518;2023-02-28T08:20:34;101676.59;;;6.90;62.10
69214;BME280;56325;47.030;18.518;2023-02-28T08:23:08;101673.91;;;7.86;87.45
69214;BME280;56325;47.030;18.518;2023-02-28T08:25:43;101665.94;;;9.55;68.42
69214;BME280;56325;47.030;18.518;2023-02-28T08:28:17;101670.63;;;7.06;52.51
69214;BME280;56325;47.030;18.518;2023-02-28T08:30:52;101671.22;;;6.65;53.20
69214;BME280;56325;47.030;18.518;2023-02-28T08:33:27;101680.34;;;6.16;52.21
69214;BME280;56325;47.030;18.518;2023-02-28T08:36:04;101681.50;;;6.18;54.60
69214;BME280;56325;47.030;18.518;2023-02-28T08:38:39;101684.66;;;5.71;52.33
69214;BME280;56325;47.030;18.518;2023-02-28T08:41:13;101679.59;;;5.55;53.77
69214;BME280;56325;47.030;18.518;2023-02-28T08:43:47;101674.91;;;5.41;52.03
69214;BME280;56325;47.030;18.518;2023-02-28T08:46:22;101670.59;;;5.30;54.34
69214;BME280;56325;47.030;18.518;2023-02-28T08:48:57;101665.00;;;8.58;86.45
69214;BME280;56325;47.030;18.518;2023-02-28T08:51:36;101652.22;;;10.81;80.57
69214;BME280;56325;47.030;18.518;2023-02-28T08:54:10;101640.28;;;9.65;54.37
69214;BME280;56325;47.030;18.518;2023-02-28T08:56:47;101651.16;;;7.93;50.49
69214;BME280;56325;47.030;18.518;2023-02-28T08:59:22;101663.81;;;7.32;51.95
69214;BME280;56325;47.030;18.518;2023-02-28T09:01:56;101671.44;;;6.99;51.05
69214;BME280;56325;47.030;18.518;2023-02-28T09:04:31;101663.00;;;6.69;51.49
69214;BME280;56325;47.030;18.518;2023-02-28T09:07:07;101664.56;;;6.70;51.41
69214;BME280;56325;47.030;18.518;2023-02-28T09:09:41;101671.66;;;6.49;50.81
69214;BME280;56325;47.030;18.518;2023-02-28T09:12:27;101673.66;;;6.42;50.63
69214;BME280;56325;47.030;18.518;2023-02-28T09:15:07;101652.56;;;8.80;82.08
69214;BME280;56325;47.030;18.518;2023-02-28T09:17:42;101652.09;;;8.54;53.59
69214;BME280;56325;47.030;18.518;2023-02-28T09:20:19;101652.34;;;8.94;78.28
69214;BME280;56325;47.030;18.518;2023-02-28T09:22:56;101653.59;;;9.43;50.30
69214;BME280;56325;47.030;18.518;2023-02-28T09:25:30;101656.16;;;7.64;47.92
69214;BME280;56325;47.030;18.518;2023-02-28T09:28:05;101653.56;;;7.43;50.09
69214;BME280;56325;47.030;18.518;2023-02-28T09:30:39;101645.88;;;7.27;48.25
69214;BME280;56325;47.030;18.518;2023-02-28T09:33:14;101654.97;;;7.10;50.28
69214;BME280;56325;47.030;18.518;2023-02-28T09:35:50;101659.63;;;7.13;50.22
69214;BME280;56325;47.030;18.518;2023-02-28T09:38:27;101652.06;;;6.72;50.73
69214;BME280;56325;47.030;18.518;2023-02-28T09:41:09;101659.44;;;6.82;50.96
69214;BME280;56325;47.030;18.518;2023-02-28T09:43:46;101665.16;;;7.02;51.01
69214;BME280;56325;47.030;18.518;2023-02-28T09:46:28;101653.47;;;6.98;51.21
69214;BME280;56325;47.030;18.518;2023-02-28T09:49:10;101655.75;;;7.07;50.60
69214;BME280;56325;47.030;18.518;2023-02-28T09:51:50;101653.31;;;7.23;50.65
69214;BME280;56325;47.030;18.518;2023-02-28T09:54:31;101655.38;;;7.08;51.65
69214;BME280;56325;47.030;18.518;2023-02-28T09:57:08;101662.72;;;7.22;50.47
69214;BME280;56325;47.030;18.518;2023-02-28T09:59:56;101660.78;;;7.19;50.44
69214;BME280;56325;47.030;18.518;2023-02-28T10:03:11;101664.94;;;7.38;50.39
69214;BME280;56325;47.030;18.518;2023-02-28T10:05:52;101661.06;;;7.32;51.27
69214;BME280;56325;47.030;18.518;2023-02-28T10:08:40;101656.63;;;7.52;50.96
69214;BME280;56325;47.030;18.518;2023-02-28T10:11:20;101660.44;;;7.10;51.04
69214;BME280;56325;47.030;18.518;2023-02-28T10:14:00;101657.31;;;7.08;51.02
69214;BME280;56325;47.030;18.518;2023-02-28T10:16:41;101653.47;;;6.98;51.58
69214;BME280;56325;47.030;18.518;2023-02-28T10:19:22;101665.28;;;6.84;51.30
69214;BME280;56325;47.030;18.518;2023-02-28T10:22:03;101664.66;;;6.48;52.29
69214;BME280;56325;47.030;18.518;2023-02-28T10:24:40;101655.28;;;6.49;52.60
69214;BME280;56325;47.030;18.518;2023-02-28T10:27:19;101666.25;;;6.35;53.25
69214;BME280;56325;47.030;18.518;2023-02-28T10:29:56;101658.50;;;6.09;52.73
69214;BME280;56325;47.030;18.518;2023-02-28T10:32:32;101660.87;;;5.85;54.19
69214;BME280;56325;47.030;18.518;2023-02-28T10:35:15;101663.22;;;5.98;53.54
69214;BME280;56325;47.030;18.518;2023-02-28T10:37:53;101657.75;;;5.73;54.96
69214;BME280;56325;47.030;18.518;2023-02-28T10:40:32;101664.78;;;5.77;54.47
69214;BME280;56325;47.030;18.518;2023-02-28T10:43:20;101657.78;;;5.98;53.95
69214;BME280;56325;47.030;18.518;2023-02-28T10:46:10;101657.37;;;5.85;54.35
69214;BME280;56325;47.030;18.518;2023-02-28T10:48:59;101657.37;;;5.78;54.64
69214;BME280;56325;47.030;18.518;2023-02-28T10:51:36;101653.47;;;6.00;53.98
69214;BME280;56325;47.030;18.518;2023-02-28T10:54:15;101653.84;;;5.77;52.89
69214;BME280;56325;47.030;18.518;2023-02-28T10:57:08;101656.19;;;5.72;53.88
69214;BME280;56325;47.030;18.518;2023-02-28T10:59:52;101652.69;;;5.82;54.13
69214;BME280;56325;47.030;18.518;2023-02-28T11:02:33;101655.78;;;6.09;55.22
69214;BME280;56325;47.030;18.518;2023-02-28T11:05:28;101643.66;;;6.20;53.81
69214;BME280;56325;47.030;18.518;2023-02-28T11:08:10;101644.81;;;6.23;53.09
69214;BME280;56325;47.030;18.518;2023-02-28T11:10:47;101645.97;;;6.25;54.70
69214;BME280;56325;47.030;18.518;2023-02-28T11:13:26;101645.94;;;6.40;54.25
69214;BME280;56325;47.030;18.518;2023-02-28T11:16:06;101653.00;;;6.30;53.47
69214;BME280;56325;47.030;18.518;2023-02-28T11:18:43;101636.63;;;7.07;78.94
69214;BME280;56325;47.030;18.518;2023-02-28T11:21:25;101632.09;;;10.28;85.15
69214;BME280;56325;47.030;18.518;2023-02-28T11:24:02;101620.69;;;9.63;58.96
69214;BME280;56325;47.030;18.518;2023-02-28T11:26:40;101616.50;;;7.79;51.98
69214;BME280;56325;47.030;18.518;2023-02-28T11:29:20;101610.66;;;7.33;52.51
69214;BME280;56325;47.030;18.518;2023-02-28T11:32:07;101609.94;;;7.21;52.52
69214;BME280;56325;47.030;18.518;2023-02-28T11:34:47;101614.88;;;6.89;52.39
69214;BME280;56325;47.030;18.518;2023-02-28T11:37:33;101607.25;;;7.14;52.69
69214;BME280;56325;47.030;18.518;2023-02-28T11:40:13;101606.72;;;6.78;53.06
69214;BME280;56325;47.030;18.518;2023-02-28T11:42:57;101602.69;;;6.97;53.54
69214;BME280;56325;47.030;18.518;2023-02-28T11:45:44;101595.09;;;7.22;53.31
69214;BME280;56325;47.030;18.518;2023-02-28T11:48:24;101587.69;;;7.19;53.35
69214;BME280;56325;47.030;18.518;2023-02-28T11:51:03;101584.91;;;7.27;51.97
69214;BME280;56325;47.030;18.518;2023-02-28T11:53:52;101583.03;;;7.16;51.24
69214;BME280;56325;47.030;18.518;2023-02-28T11:56:32;101584.41;;;6.90;53.42
69214;BME280;56325;47.030;18.518;2023-02-28T11:59:27;101590.69;;;6.84;53.39
69214;BME280;56325;47.030;18.518;2023-02-28T12:02:25;101586.84;;;6.71;52.80
69214;BME280;56325;47.030;18.518;2023-02-28T12:05:28;101579.88;;;6.59;54.87
69214;BME280;56325;47.030;18.518;2023-02-28T12:08:15;101578.31;;;6.62;54.40
69214;BME280;56325;47.030;18.518;2023-02-28T12:11:04;101584.19;;;6.56;55.04
69214;BME280;56325;47.030;18.518;2023-02-28T12:13:48;101574.81;;;6.57;54.54
69214;BME280;56325;47.030;18.518;2023-02-28T12:16:38;101565.06;;;6.56;54.40
69214;BME280;56325;47.030;18.518;2023-02-28T12:19:20;101563.50;;;6.59;54.10
69214;BME280;56325;47.030;18.518;2023-02-28T12:22:10;101567.81;;;6.53;54.61
69214;BME280;56325;47.030;18.518;2023-02-28T12:25:24;101560.69;;;6.70;55.05
69214;BME280;56325;47.030;18.518;2023-02-28T12:28:08;101565.81;;;6.61;54.32
69214;BME280;56325;47.030;18.518;2023-02-28T12:30:49;101556.41;;;6.69;54.39
69214;BME280;56325;47.030;18.518;2023-02-28T12:33:32;101532.75;;;9.86;87.89
69214;BME280;56325;47.030;18.518;2023-02-28T12:36:11;101539.00;;;8.74;61.28
69214;BME280;56325;47.030;18.518;2023-02-28T12:38:53;101542.47;;;7.86;54.00
69214;BME280;56325;47.030;18.518;2023-02-28T12:41:33;101540.94;;;7.48;54.15
69214;BME280;56325;47.030;18.518;2023-02-28T12:44:13;101546.72;;;7.12;53.79
69214;BME280;56325;47.030;18.518;2023-02-28T12:46:51;101546.34;;;7.07;54.74
69214;BME280;56325;47.030;18.518;2023-02-28T12:49:31;101541.66;;;7.07;54.59
69214;BME280;56325;47.030;18.518;2023-02-28T12:52:08;101540.06;;;7.13;54.64
69214;BME280;56325;47.030;18.518;2023-02-28T12:54:51;101540.09;;;7.10;55.15
69214;BME280;56325;47.030;18.518;2023-02-28T12:57:34;101530.56;;;8.88;84.12
69214;BME280;56325;47.030;18.518;2023-02-28T13:00:14;101524.34;;;8.30;57.08
69214;BME280;56325;47.030;18.518;2023-02-28T13:06:20;101536.09;;;7.21;54.24
69214;BME280;56325;47.030;18.518;2023-02-28T13:09:05;101534.47;;;7.28;53.23
69214;BME280;56325;47.030;18.518;2023-02-28T13:11:45;101540.53;;;7.01;54.58
69214;BME280;56325;47.030;18.518;2023-02-28T13:14:24;101528.16;;;6.89;53.74
69214;BME280;56325;47.030;18.518;2023-02-28T13:17:03;101523.41;;;6.94;54.44
69214;BME280;56325;47.030;18.518;2023-02-28T13:19:46;101520.16;;;6.57;53.24
69214;BME280;56325;47.030;18.518;2023-02-28T13:22:39;101519.69;;;6.70;54.63
69214;BME280;56325;47.030;18.518;2023-02-28T13:35:34;101511.44;;;6.77;54.51
69214;BME280;56325;47.030;18.518;2023-02-28T13:38:35;101519.25;;;6.78;54.93
69214;BME280;56325;47.030;18.518;2023-02-28T13:41:42;101508.22;;;6.93;55.76
69214;BME280;56325;47.030;18.518;2023-02-28T13:44:18;101503.09;;;6.95;55.01
69214;BME280;56325;47.030;18.518;2023-02-28T13:50:24;101507.87;;;6.83;55.43
69214;BME280;56325;47.030;18.518;2023-02-28T13:53:31;101508.34;;;6.75;55.95
69214;BME280;56325;47.030;18.518;2023-02-28T13:56:19;101509.13;;;6.72;55.26
69214;BME280;56325;47.030;18.518;2023-02-28T13:59:06;101511.97;;;6.57;54.93
69214;BME280;56325;47.030;18.518;2023-02-28T14:02:00;101508.81;;;6.63;56.00
69214;BME280;56325;47.030;18.518;2023-02-28T14:04:46;101503.41;;;6.52;56.44
69214;BME280;56325;47.030;18.518;2023-02-28T14:07:26;101505.75;;;6.50;56.10
69214;BME280;56325;47.030;18.518;2023-02-28T14:10:08;101504.53;;;6.62;56.54
69214;BME280;56325;47.030;18.518;2023-02-28T14:12:57;101498.34;;;6.50;56.58
69214;BME280;56325;47.030;18.518;2023-02-28T14:15:47;101500.69;;;6.48;55.92
69214;BME280;56325;47.030;18.518;2023-02-28T14:18:30;101496.53;;;6.26;55.99